Аэропорт: Внуково. Москва

ICAO: UUWW

METAR:
2021-07-28 14:30:00
UUWW 281430Z 14004MPS 7000 -SHRA BKN008 BKN036CB 18/18 Q1012 R06/290050 NOSIG
METAR:
2021-07-28 10:58:00
TAF UUWW 281058Z 2812/2912 14003G08MPS 9999 BKN020 TX26/2912Z TN17/2903Z TEMPO 2812/2818 16008G15MPS -TSRA FEW005 BKN025CB TEMPO 2818/2905 12005MPS 1500 SHRA BR SCT005 BKN025CB PROB40 TEMPO 2818/2903 -TSRA BKN020CB BECMG 2905/2907 26005MPS